Time;durP1;ratioP1;P1;durP2;ratioP2;P2;SDS_P1;SDS_P2;PMS_P1;PMS_P2;Temp;Humidity;BMP_temperature;BMP_pressure;BME280_temperature;BME280_humidity;BME280_pressure;Samples;Min_cycle;Max_cycle;Signal;HPM_P1;HPM_P2
2022/12/27 00:02:01;;;;;;;36.15;13.98;;;;;;;1.71;100.00;102092.91;5113492;28;20459;-47
2022/12/27 00:04:27;;;;;;;38.38;14.40;;;;;;;1.69;100.00;102096.94;5113373;28;20044;-49
2022/12/27 00:06:52;;;;;;;36.30;14.43;;;;;;;1.70;100.00;102101.28;5112785;28;20030;-46
2022/12/27 00:09:17;;;;;;;37.25;14.95;;;;;;;1.64;100.00;102100.00;5113592;28;20030;-49
2022/12/27 00:11:43;;;;;;;37.28;15.13;;;;;;;1.67;100.00;102090.88;5113196;28;20031;-49
2022/12/27 00:14:09;;;;;;;40.00;14.95;;;;;;;1.64;100.00;102107.63;5112628;28;20039;-50
2022/12/27 00:16:35;;;;;;;33.05;14.43;;;;;;;1.60;100.00;102103.03;5113288;28;20049;-48
2022/12/27 00:19:01;;;;;;;40.05;15.15;;;;;;;1.67;100.00;102101.03;5112926;28;20117;-46
2022/12/27 00:21:26;;;;;;;46.60;15.40;;;;;;;1.70;100.00;102099.63;5113533;28;20019;-48
2022/12/27 00:23:54;;;;;;;37.22;14.60;;;;;;;1.68;100.00;102105.31;5113110;28;20026;-48
2022/12/27 00:26:25;;;;;;;30.65;13.98;;;;;;;1.69;100.00;102100.41;5112617;28;20027;-49
2022/12/27 00:28:51;;;;;;;38.95;14.80;;;;;;;1.71;100.00;102100.53;5113210;28;20036;-49
2022/12/27 00:31:18;;;;;;;42.35;14.75;;;;;;;1.71;100.00;102110.69;5113336;28;20028;-48
2022/12/27 00:33:45;;;;;;;39.30;14.05;;;;;;;1.70;100.00;102112.31;5112490;28;20026;-49
2022/12/27 00:36:14;;;;;;;39.47;15.32;;;;;;;1.73;100.00;102112.59;5113452;28;20039;-45
2022/12/27 00:38:39;;;;;;;38.90;14.52;;;;;;;1.74;100.00;102116.03;5113004;28;20031;-48
2022/12/27 00:41:05;;;;;;;43.45;14.85;;;;;;;1.73;100.00;102111.69;5112657;28;20023;-50
2022/12/27 00:43:31;;;;;;;38.13;14.75;;;;;;;1.72;100.00;102120.09;5112904;28;20034;-49
2022/12/27 00:45:56;;;;;;;41.35;15.05;;;;;;;1.74;100.00;102119.47;5113367;28;20027;-46
2022/12/27 00:48:22;;;;;;;38.80;14.70;;;;;;;1.74;100.00;102123.66;5112541;28;20043;-49
2022/12/27 00:50:47;;;;;;;44.63;15.27;;;;;;;1.71;100.00;102123.41;5112925;28;20020;-49
2022/12/27 00:53:13;;;;;;;43.13;15.13;;;;;;;1.69;100.00;102130.91;5112924;28;20449;-49
2022/12/27 00:55:42;;;;;;;42.53;14.73;;;;;;;1.70;100.00;102134.31;5112138;28;20041;-49
2022/12/27 00:58:07;;;;;;;45.60;15.00;;;;;;;1.64;100.00;102129.63;5113315;28;20048;-50
2022/12/27 01:00:33;;;;;;;33.63;13.90;;;;;;;1.66;100.00;102135.69;5112870;28;20058;-48
2022/12/27 01:02:58;;;;;;;44.80;14.13;;;;;;;1.65;100.00;102128.81;5112288;28;20043;-48
2022/12/27 01:05:24;;;;;;;36.13;13.73;;;;;;;1.66;100.00;102135.69;5113005;28;20479;-50
2022/12/27 01:07:49;;;;;;;44.47;14.20;;;;;;;1.70;100.00;102134.31;5112685;28;20034;-47
2022/12/27 01:10:14;;;;;;;46.47;14.30;;;;;;;1.71;100.00;102139.53;5112371;28;20076;-46
2022/12/27 01:12:40;;;;;;;38.42;14.30;;;;;;;1.71;100.00;102133.56;5115934;28;20076;-49
2022/12/27 01:15:07;;;;;;;33.55;13.23;;;;;;;1.74;100.00;102138.91;5116955;28;20383;-48
2022/12/27 01:17:32;;;;;;;39.50;14.15;;;;;;;1.74;100.00;102149.06;5115784;28;20036;-49
2022/12/27 01:19:58;;;;;;;38.67;14.48;;;;;;;1.75;100.00;102145.78;5116837;28;20026;-49
2022/12/27 01:22:23;;;;;;;43.10;13.93;;;;;;;1.77;100.00;102136.63;5116003;28;20055;-48
2022/12/27 01:24:48;;;;;;;37.58;13.90;;;;;;;1.76;100.00;102142.47;5116640;28;20038;-49
2022/12/27 01:27:14;;;;;;;39.45;13.95;;;;;;;1.73;100.00;102148.19;5116942;28;20463;-45
2022/12/27 01:29:39;;;;;;;39.30;14.15;;;;;;;1.78;100.00;102144.41;5115844;28;20034;-46
2022/12/27 01:32:04;;;;;;;33.55;14.10;;;;;;;1.81;100.00;102152.28;5116725;28;20028;-45
2022/12/27 01:34:30;;;;;;;42.30;13.68;;;;;;;1.82;100.00;102160.78;5116281;28;20471;-49
2022/12/27 01:36:55;;;;;;;41.65;12.98;;;;;;;1.83;100.00;102162.56;5115775;28;20031;-49
2022/12/27 01:39:20;;;;;;;38.45;13.43;;;;;;;1.78;100.00;102171.44;5116582;28;20023;-50
2022/12/27 01:44:38;;;;;;;34.80;13.55;;;;;;;1.84;100.00;102171.97;5115553;28;20043;-48
2022/12/27 01:47:22;;;;;;;44.92;14.80;;;;;;;1.80;100.00;102180.09;5116533;28;20032;-49
2022/12/27 01:50:02;;;;;;;37.63;13.35;;;;;;;1.83;100.00;102172.72;5116203;28;20104;-48
2022/12/27 01:52:41;;;;;;;33.92;13.80;;;;;;;1.84;100.00;102179.59;5115300;28;20081;-48
2022/12/27 01:55:16;;;;;;;39.28;13.55;;;;;;;1.80;100.00;102180.09;5116306;28;20066;-49
2022/12/27 01:57:42;;;;;;;37.33;13.32;;;;;;;1.84;100.00;102183.81;5115200;28;20024;-49
2022/12/27 02:00:08;;;;;;;37.20;12.75;;;;;;;1.83;100.00;102187.09;5116208;28;20049;-50
2022/12/27 02:02:33;;;;;;;33.72;12.90;;;;;;;1.79;100.00;102184.28;5115697;28;20031;-50
2022/12/27 02:04:59;;;;;;;51.67;14.27;;;;;;;1.75;100.00;102191.53;5115290;28;20015;-50
2022/12/27 02:07:29;;;;;;;45.08;13.05;;;;;;;1.76;100.00;102189.13;5116155;28;20073;-50
2022/12/27 02:09:58;;;;;;;41.13;13.07;;;;;;;1.71;100.00;102194.56;5116246;28;20020;-48
2022/12/27 02:12:25;;;;;;;51.63;13.60;;;;;;;1.73;100.00;102193.94;5115022;28;20027;-46
2022/12/27 02:14:50;;;;;;;46.20;13.27;;;;;;;1.75;100.00;102197.50;5115636;28;20034;-49
2022/12/27 02:17:24;;;;;;;44.13;12.68;;;;;;;1.72;100.00;102198.91;5115786;28;20391;-49
2022/12/27 02:20:16;;;;;;;42.17;13.60;;;;;;;1.78;100.00;102189.25;5114867;28;20024;-50
2022/12/27 02:26:12;;;;;;;40.28;12.45;;;;;;;1.80;100.00;102202.97;5115480;28;20062;-50
2022/12/27 02:29:01;;;;;;;37.08;13.25;;;;;;;1.76;100.00;102203.47;5115258;28;20368;-50
2022/12/27 02:31:40;;;;;;;36.13;13.15;;;;;;;1.73;100.00;102203.19;5115704;28;20019;-49
2022/12/27 02:34:14;;;;;;;40.33;13.50;;;;;;;1.73;100.00;102209.19;5114821;28;20077;-50
2022/12/27 02:36:43;;;;;;;34.58;13.20;;;;;;;1.75;100.00;102201.69;5115223;28;20095;-49
2022/12/27 02:39:11;;;;;;;45.80;12.98;;;;;;;1.78;100.00;102207.03;5115371;28;20031;-48
2022/12/27 02:53:15;;;;;;;45.42;13.52;;;;;;;1.83;100.00;102208.31;5115115;28;20498;-49
2022/12/27 02:59:06;;;;;;;50.55;13.38;;;;;;;1.91;100.00;102198.81;5114932;28;20609;-49
2022/12/27 03:04:46;;;;;;;35.65;11.88;;;;;;;1.93;100.00;102207.47;5114560;28;20046;-45
2022/12/27 03:07:20;;;;;;;47.55;12.00;;;;;;;1.97;100.00;102200.22;5114756;28;20076;-45
2022/12/27 03:16:07;;;;;;;41.83;12.25;;;;;;;2.02;100.00;102202.31;5113661;28;20088;-50
2022/12/27 03:18:48;;;;;;;46.38;12.05;;;;;;;1.97;100.00;102202.78;5114281;28;20042;-48
2022/12/27 03:25:26;;;;;;;46.35;11.65;;;;;;;1.95;100.00;102200.88;5114018;28;20038;-49
2022/12/27 03:27:02;;;;;;;45.92;12.10;;;;;;;1.96;100.00;102217.91;5114226;28;20054;-50
2022/12/27 03:35:21;;;;;;;48.92;11.57;;;;;;;1.96;100.00;102234.06;5114309;28;20096;-48
2022/12/27 03:38:01;;;;;;;45.30;12.30;;;;;;;1.95;100.00;102237.38;5113050;28;20024;-44
2022/12/27 03:40:38;;;;;;;38.38;11.05;;;;;;;1.93;100.00;102243.97;5114438;28;20034;-44
2022/12/27 03:43:12;;;;;;;52.33;11.88;;;;;;;1.98;100.00;102235.09;5113554;28;20020;-44
2022/12/27 03:49:05;;;;;;;40.72;11.75;;;;;;;2.16;100.00;102270.50;5113989;28;20092;-44
2022/12/27 03:51:36;;;;;;;38.85;11.48;;;;;;;2.21;100.00;102266.72;5112987;28;20034;-44
2022/12/27 03:54:09;;;;;;;44.58;11.73;;;;;;;2.21;100.00;102254.00;5108890;28;20024;-44
2022/12/27 03:56:36;;;;;;;41.65;11.70;;;;;;;2.20;100.00;102247.13;5093193;28;20059;-44
2022/12/27 03:59:03;;;;;;;45.65;11.65;;;;;;;2.21;100.00;102245.44;5092599;28;20520;-45
2022/12/27 04:01:29;;;;;;;47.60;11.52;;;;;;;2.14;100.00;102246.56;5093142;28;20376;-44
2022/12/27 04:03:54;;;;;;;38.35;11.20;;;;;;;2.09;100.00;102252.91;5093318;28;20048;-44
2022/12/27 04:06:20;;;;;;;49.97;12.02;;;;;;;2.07;100.00;102255.34;5092722;28;20271;-44
2022/12/27 04:36:04;;;;;;;47.47;12.90;;;;;;;1.91;100.00;102250.59;5092961;28;20038;-44
2022/12/27 04:38:30;;;;;;;37.40;11.63;;;;;;;1.87;100.00;102245.97;5092826;28;20024;-44
2022/12/27 04:54:56;;;;;;;41.28;10.95;;;;;;;2.11;100.00;102267.56;5095900;28;20031;-44
2022/12/27 04:57:21;;;;;;;45.00;11.32;;;;;;;2.20;100.00;102274.22;5097139;28;20078;-44
2022/12/27 05:02:30;;;;;;;45.22;11.00;;;;;;;2.28;100.00;102271.53;5095585;28;20035;-44
2022/12/27 05:04:56;;;;;;;39.53;11.23;;;;;;;2.27;100.00;102269.78;5096817;28;20020;-44
2022/12/27 05:15:34;;;;;;;43.13;11.80;;;;;;;2.09;100.00;102266.53;5095660;28;20031;-44
2022/12/27 05:17:59;;;;;;;35.72;12.30;;;;;;;2.06;100.00;102266.25;5096414;28;20032;-44
2022/12/27 05:20:25;;;;;;;32.15;11.95;;;;;;;2.06;100.00;102267.94;5096647;28;20503;-44
2022/12/27 05:25:34;;;;;;;39.53;12.45;;;;;;;1.98;100.00;102268.13;5096255;28;20035;-45
2022/12/27 05:28:00;;;;;;;49.80;12.85;;;;;;;1.96;100.00;102278.94;5096512;28;20024;-44
2022/12/27 05:30:26;;;;;;;47.80;11.88;;;;;;;1.92;100.00;102272.69;5095504;28;20353;-44
2022/12/27 05:32:55;;;;;;;41.15;12.65;;;;;;;1.94;100.00;102288.09;5096114;28;20447;-44
2022/12/27 05:35:20;;;;;;;57.28;13.05;;;;;;;1.90;100.00;102283.47;5096245;28;20031;-45
2022/12/27 05:37:45;;;;;;;38.85;11.85;;;;;;;1.88;100.00;102285.88;5095281;28;20024;-44
2022/12/27 05:40:11;;;;;;;49.22;11.63;;;;;;;1.89;100.00;102295.31;5096175;28;20114;-44
2022/12/27 05:42:36;;;;;;;45.78;11.77;;;;;;;1.94;100.00;102301.69;5095076;28;20031;-44
2022/12/27 05:45:02;;;;;;;50.92;11.05;;;;;;;1.99;100.00;102307.19;5095929;28;20114;-45
2022/12/27 05:47:27;;;;;;;45.17;10.98;;;;;;;2.07;100.00;102312.94;5095891;28;20031;-45
2022/12/27 05:49:52;;;;;;;35.50;9.93;;;;;;;2.17;100.00;102320.63;5095315;28;20032;-45
2022/12/27 05:52:18;;;;;;;39.50;10.82;;;;;;;2.28;100.00;102329.19;5095948;28;20020;-44
2022/12/27 05:54:43;;;;;;;40.00;11.60;;;;;;;2.38;100.00;102318.16;5095442;28;20402;-44
2022/12/27 05:57:08;;;;;;;45.10;11.68;;;;;;;2.42;100.00;102320.22;5095133;28;20472;-44
2022/12/27 05:59:34;;;;;;;42.55;12.38;;;;;;;2.43;100.00;102324.53;5095333;28;20028;-44
2022/12/27 06:01:59;;;;;;;56.42;14.25;;;;;;;2.46;100.00;102329.88;5095660;28;20544;-44
2022/12/27 06:04:25;;;;;;;41.08;15.35;;;;;;;2.45;100.00;102329.00;5094773;28;20058;-44
2022/12/27 06:06:50;;;;;;;46.88;14.73;;;;;;;2.45;100.00;102339.19;5095602;28;20023;-44
2022/12/27 06:09:16;;;;;;;47.30;14.38;;;;;;;2.45;100.00;102330.63;5095453;28;20462;-45
2022/12/27 06:11:42;;;;;;;43.08;14.98;;;;;;;2.44;100.00;102333.94;5094531;28;20555;-44
2022/12/27 06:14:07;;;;;;;45.50;14.50;;;;;;;2.42;100.00;102328.72;5095338;28;20098;-45
2022/12/27 06:16:32;;;;;;;47.00;14.68;;;;;;;2.41;100.00;102333.69;5095308;28;20026;-44
2022/12/27 06:18:57;;;;;;;50.58;14.35;;;;;;;2.36;100.00;102332.38;5094646;28;20028;-44
2022/12/27 06:21:23;;;;;;;57.15;14.85;;;;;;;2.34;100.00;102336.44;5095425;28;20468;-46
2022/12/27 06:23:48;;;;;;;44.55;13.30;;;;;;;2.29;100.00;102336.94;5095185;28;20081;-44
2022/12/27 06:26:26;;;;;;;42.58;14.02;;;;;;;2.24;100.00;102342.41;5094497;28;20070;-45
2022/12/27 06:28:53;;;;;;;46.17;13.85;;;;;;;2.13;100.00;102341.44;5094749;28;20035;-44
2022/12/27 06:31:20;;;;;;;44.95;14.40;;;;;;;2.06;100.00;102337.47;5095298;28;20028;-45
2022/12/27 06:33:46;;;;;;;48.45;14.77;;;;;;;1.98;100.00;102336.78;5094252;28;20028;-44
2022/12/27 06:36:15;;;;;;;46.58;13.93;;;;;;;1.90;100.00;102334.31;5095043;28;20077;-45
2022/12/27 06:38:41;;;;;;;42.58;14.07;;;;;;;1.86;100.00;102338.28;5094763;28;20024;-45
2022/12/27 06:41:09;;;;;;;52.40;14.45;;;;;;;1.77;100.00;102333.25;5094070;28;20384;-44
2022/12/27 06:43:35;;;;;;;48.08;15.52;;;;;;;1.71;100.00;102332.69;5094760;28;20024;-44
2022/12/27 06:46:03;;;;;;;59.20;16.27;;;;;;;1.67;100.00;102337.38;5094327;28;20020;-44
2022/12/27 06:48:28;;;;;;;57.47;17.55;;;;;;;1.60;100.00;102329.22;5094686;28;20024;-44
2022/12/27 06:50:54;;;;;;;54.40;16.10;;;;;;;1.62;100.00;102329.34;5094915;28;20027;-44
2022/12/27 06:53:20;;;;;;;48.95;15.90;;;;;;;1.59;100.00;102340.13;5093807;28;20031;-44
2022/12/27 06:55:45;;;;;;;48.13;15.57;;;;;;;1.57;100.00;102349.25;5094194;28;20115;-45
2022/12/27 06:58:12;;;;;;;41.22;14.05;;;;;;;1.50;100.00;102339.28;5094551;28;20077;-44
2022/12/27 07:00:38;;;;;;;53.45;15.07;;;;;;;1.47;100.00;102339.91;5093626;28;20055;-44
2022/12/27 07:03:04;;;;;;;50.35;15.20;;;;;;;1.43;100.00;102349.66;5094447;28;20066;-44
2022/12/27 07:05:30;;;;;;;57.08;15.07;;;;;;;1.39;100.00;102342.50;5094341;28;20066;-45
2022/12/27 07:07:55;;;;;;;47.92;13.60;;;;;;;1.36;100.00;102352.41;5093656;28;20051;-44
2022/12/27 07:10:21;;;;;;;48.30;14.40;;;;;;;1.29;100.00;102361.09;5093743;28;20035;-44
2022/12/27 07:12:46;;;;;;;49.88;13.82;;;;;;;1.30;100.00;102361.25;5094300;28;20860;-44
2022/12/27 07:15:11;;;;;;;47.90;15.52;;;;;;;1.26;100.00;102361.69;5093546;28;20383;-44
2022/12/27 07:17:38;;;;;;;48.80;15.05;;;;;;;1.18;100.00;102365.19;5094117;28;20028;-45
2022/12/27 07:20:04;;;;;;;54.35;16.10;;;;;;;1.21;100.00;102362.03;5094072;28;20463;-45
2022/12/27 07:22:29;;;;;;;50.60;15.85;;;;;;;1.18;100.00;102361.78;5092908;28;20028;-45
2022/12/27 07:24:54;;;;;;;48.20;15.90;;;;;;;1.17;100.00;102360.84;5094098;28;20027;-48
2022/12/27 07:27:20;;;;;;;51.95;15.20;;;;;;;1.14;100.00;102368.22;5094143;28;20024;-45
2022/12/27 07:29:45;;;;;;;50.13;15.38;;;;;;;1.10;100.00;102368.69;5093085;28;20448;-45
2022/12/27 07:32:10;;;;;;;46.78;16.58;;;;;;;1.10;100.00;102373.75;5094081;28;20019;-45
2022/12/27 07:34:36;;;;;;;49.25;16.83;;;;;;;1.06;100.00;102371.66;5093553;28;20027;-45
2022/12/27 07:37:01;;;;;;;53.85;16.95;;;;;;;1.09;100.00;102367.78;5093063;28;20036;-46
2022/12/27 07:39:26;;;;;;;60.88;16.98;;;;;;;1.09;100.00;102371.97;5093637;28;20016;-47
2022/12/27 07:41:51;;;;;;;52.95;17.88;;;;;;;1.12;100.00;102383.31;5093427;28;20062;-45
2022/12/27 07:44:17;;;;;;;52.60;18.38;;;;;;;1.12;100.00;102377.31;5092824;28;20028;-44
2022/12/27 07:46:42;;;;;;;58.60;17.35;;;;;;;1.12;100.00;102379.84;5093360;28;20498;-44
2022/12/27 07:49:09;;;;;;;56.28;18.77;;;;;;;1.09;100.00;102382.13;5093311;28;20020;-45
2022/12/27 07:51:34;;;;;;;57.35;18.23;;;;;;;1.09;100.00;102377.06;5093269;28;20016;-48
2022/12/27 07:53:59;;;;;;;64.65;19.60;;;;;;;1.09;100.00;102383.00;5093408;28;20035;-48
2022/12/27 07:56:26;;;;;;;64.70;19.58;;;;;;;1.12;100.00;102385.84;5092531;28;20024;-49
2022/12/27 07:58:53;;;;;;;54.30;19.03;;;;;;;1.13;100.00;102389.28;5093497;28;20433;-46
2022/12/27 08:01:20;;;;;;;69.65;19.30;;;;;;;1.14;100.00;102391.06;5093518;28;20281;-46
2022/12/27 08:03:45;;;;;;;62.05;19.88;;;;;;;1.17;100.00;102391.34;5092173;28;20048;-45
2022/12/27 08:06:32;;;;;;;74.07;21.48;;;;;;;1.22;100.00;102395.19;5093324;28;20027;-47
2022/12/27 08:08:59;;;;;;;50.40;19.58;;;;;;;1.25;100.00;102398.03;5093234;28;20039;-44
2022/12/27 08:11:29;;;;;;;70.07;22.77;;;;;;;1.26;100.00;102397.25;5092717;28;20024;-44
2022/12/27 08:13:54;;;;;;;62.35;21.17;;;;;;;1.29;100.00;102399.19;5093129;28;20024;-45
2022/12/27 08:16:22;;;;;;;66.97;24.38;;;;;;;1.34;100.00;102399.63;5093051;28;20110;-45
2022/12/27 08:18:48;;;;;;;72.85;25.77;;;;;;;1.38;100.00;102409.31;5092177;28;20031;-44
2022/12/27 08:21:13;;;;;;;61.60;22.50;;;;;;;1.39;100.00;102408.56;5092162;28;20024;-44
2022/12/27 08:23:39;;;;;;;77.30;26.23;;;;;;;1.41;100.00;102407.06;5092984;28;20525;-45
2022/12/27 08:26:05;;;;;;;69.63;26.48;;;;;;;1.43;100.00;102411.53;5092433;28;20024;-44
2022/12/27 08:28:30;;;;;;;55.83;22.95;;;;;;;1.45;100.00;102420.19;5092829;28;20020;-46
2022/12/27 08:30:58;;;;;;;69.32;23.88;;;;;;;1.46;100.00;102416.00;5093066;28;20046;-46
2022/12/27 08:33:23;;;;;;;82.38;30.10;;;;;;;1.50;100.00;102417.16;5092186;28;20118;-45
2022/12/27 08:35:49;;;;;;;124.88;49.80;;;;;;;1.54;100.00;102419.25;5092467;28;20118;-44
2022/12/27 08:38:14;;;;;;;100.72;40.30;;;;;;;1.55;100.00;102421.91;5093120;28;20541;-45
2022/12/27 08:40:41;;;;;;;75.10;26.42;;;;;;;1.58;100.00;102414.56;5091753;28;20028;-45
2022/12/27 08:43:06;;;;;;;76.18;27.50;;;;;;;1.61;100.00;102417.41;5092928;28;20031;-46
2022/12/27 08:45:32;;;;;;;78.10;27.98;;;;;;;1.67;100.00;102411.09;5091642;28;20020;-46
2022/12/27 08:47:58;;;;;;;68.60;26.42;;;;;;;1.71;100.00;102413.16;5092768;28;20017;-44
2022/12/27 08:50:23;;;;;;;103.78;43.83;;;;;;;1.73;100.00;102406.53;5092609;28;20039;-48
2022/12/27 08:52:49;;;;;;;60.83;23.63;;;;;;;1.75;100.00;102403.38;5091888;28;20024;-44
2022/12/27 08:55:14;;;;;;;86.90;32.42;;;;;;;1.78;100.00;102406.22;5092735;28;20020;-44
2022/12/27 08:57:39;;;;;;;84.03;29.58;;;;;;;1.85;100.00;102407.66;5092496;28;20107;-45
2022/12/27 09:00:05;;;;;;;133.35;53.03;;;;;;;1.87;100.00;102407.78;5092125;28;20016;-44
2022/12/27 09:02:31;;;;;;;90.00;39.33;;;;;;;1.90;100.00;102403.88;5092120;28;20022;-45
2022/12/27 09:04:56;;;;;;;92.30;35.17;;;;;;;1.94;100.00;102402.50;5092441;28;20024;-47
2022/12/27 09:07:21;;;;;;;75.05;28.63;;;;;;;1.99;100.00;102396.19;5092056;28;20028;-48
2022/12/27 09:09:46;;;;;;;59.92;25.00;;;;;;;2.04;100.00;102401.66;5092317;28;20028;-46
2022/12/27 09:12:12;;;;;;;62.22;26.00;;;;;;;2.10;100.00;102405.66;5092736;28;20064;-46
2022/12/27 09:14:37;;;;;;;136.02;45.90;;;;;;;2.14;100.00;102401.72;5091384;28;20020;-49
2022/12/27 09:17:02;;;;;;;66.57;25.55;;;;;;;2.19;100.00;102402.16;5092739;28;20034;-44
2022/12/27 09:19:27;;;;;;;72.25;31.30;;;;;;;2.22;100.00;102403.31;5092125;28;20023;-45
2022/12/27 09:21:53;;;;;;;99.97;54.47;;;;;;;2.23;100.00;102410.16;5091902;28;20059;-45
2022/12/27 09:24:18;;;;;;;64.82;24.13;;;;;;;2.26;100.00;102413.00;5092436;28;20031;-47
2022/12/27 09:26:43;;;;;;;80.78;40.17;;;;;;;2.32;100.00;102416.84;5091982;28;20027;-45
2022/12/27 09:29:09;;;;;;;57.88;24.75;;;;;;;2.33;100.00;102409.34;5091463;28;20464;-48
2022/12/27 09:31:34;;;;;;;80.60;45.75;;;;;;;2.37;100.00;102415.59;5092063;28;20024;-47
2022/12/27 09:34:00;;;;;;;57.05;25.80;;;;;;;2.40;100.00;102416.78;5095652;28;20055;-48
2022/12/27 09:36:27;;;;;;;58.50;28.20;;;;;;;2.45;100.00;102419.69;5093927;28;20426;-48
2022/12/27 09:38:55;;;;;;;51.25;23.88;;;;;;;2.53;100.00;102426.38;5094866;28;20040;-45
2022/12/27 09:41:48;;;;;;;55.55;24.73;;;;;;;2.57;100.00;102420.78;5095257;28;20103;-46
2022/12/27 09:44:54;;;;;;;52.97;20.45;;;;;;;2.62;100.00;102424.63;5095872;28;20028;-45
2022/12/27 09:47:32;;;;;;;55.25;20.60;;;;;;;2.67;100.00;102432.66;5012884;28;20029;-45
2022/12/27 09:50:04;;;;;;;45.22;20.42;;;;;;;2.72;100.00;102425.41;5012085;28;20516;-47
2022/12/27 09:52:47;;;;;;;53.78;24.50;;;;;;;2.76;100.00;102422.38;5062211;28;20041;-45
2022/12/27 09:55:18;;;;;;;52.45;21.67;;;;;;;2.83;100.00;102419.63;5095797;28;20056;-45
2022/12/27 09:57:45;;;;;;;59.35;24.80;;;;;;;2.92;100.00;102416.97;5094992;28;20031;-47
2022/12/27 10:00:18;;;;;;;81.53;43.30;;;;;;;3.04;100.00;102418.00;5095822;28;20020;-45
2022/12/27 10:02:44;;;;;;;51.58;20.67;;;;;;;3.16;100.00;102415.59;5095292;28;20115;-45
2022/12/27 10:05:22;;;;;;;62.03;35.63;;;;;;;3.32;100.00;102420.38;5095039;28;20099;-44
2022/12/27 10:07:47;;;;;;;58.13;30.92;;;;;;;3.47;100.00;102425.84;5095445;28;20028;-48
2022/12/27 10:10:39;;;;;;;48.97;20.25;;;;;;;3.66;100.00;102429.94;5094211;28;20470;-45
2022/12/27 10:13:24;;;;;;;45.53;20.95;;;;;;;3.83;100.00;102431.34;5095605;28;20028;-46
2022/12/27 10:16:16;;;;;;;45.05;18.45;;;;;;;3.90;100.00;102436.16;5094919;28;20464;-44
2022/12/27 10:18:55;;;;;;;44.28;20.58;;;;;;;4.00;100.00;102435.25;5094487;28;20024;-45
2022/12/27 10:21:23;;;;;;;37.88;15.60;;;;;;;4.09;100.00;102433.44;5095442;28;20027;-45
2022/12/27 10:23:54;;;;;;;36.63;12.70;;;;;;;4.09;100.00;102426.72;5094480;28;20699;-48
2022/12/27 10:26:20;;;;;;;33.00;13.80;;;;;;;4.11;100.00;102426.81;5095181;28;20391;-45
2022/12/27 10:28:50;;;;;;;47.90;13.65;;;;;;;4.16;100.00;102423.00;5095146;28;20023;-46
2022/12/27 10:31:21;;;;;;;33.97;14.35;;;;;;;4.26;100.00;102420.41;5094587;28;20028;-47
2022/12/27 10:33:48;;;;;;;35.78;15.95;;;;;;;4.35;100.00;102429.56;5095045;28;20016;-45
2022/12/27 10:36:17;;;;;;;29.58;13.60;;;;;;;4.43;100.00;102426.00;5095011;28;20472;-47
2022/12/27 10:38:43;;;;;;;47.83;14.43;;;;;;;4.51;100.00;102421.50;5093528;28;20050;-44
2022/12/27 10:41:42;;;;;;;37.38;14.02;;;;;;;4.64;100.00;102431.91;5094493;28;20472;-45
2022/12/27 10:44:10;;;;;;;41.17;12.68;;;;;;;4.66;100.00;102434.56;5094199;28;20075;-48
2022/12/27 10:46:35;;;;;;;34.83;12.48;;;;;;;4.75;100.00;102437.84;5093788;28;20081;-48
2022/12/27 10:49:06;;;;;;;36.30;13.32;;;;;;;4.85;100.00;102432.69;5094936;28;20028;-45
2022/12/27 10:51:37;;;;;;;40.63;14.18;;;;;;;4.91;100.00;102428.06;5094617;28;20108;-47
2022/12/27 10:54:08;;;;;;;39.40;15.13;;;;;;;4.98;100.00;102443.88;5093616;28;20036;-44
2022/12/27 10:56:38;;;;;;;37.50;13.45;;;;;;;5.08;100.00;102434.47;5093510;28;20028;-45
2022/12/27 10:59:03;;;;;;;36.45;13.15;;;;;;;5.05;100.00;102435.94;5093983;28;20038;-46
2022/12/27 11:01:31;;;;;;;38.30;13.65;;;;;;;4.95;100.00;102431.75;5094196;28;20114;-46
2022/12/27 11:04:17;;;;;;;43.17;13.90;;;;;;;4.87;100.00;102433.72;5094399;28;20048;-45
2022/12/27 11:06:44;;;;;;;34.65;13.40;;;;;;;4.76;100.00;102437.06;5093521;28;20024;-45
2022/12/27 11:09:29;;;;;;;33.20;13.68;;;;;;;4.70;100.00;102437.50;5093895;28;20127;-46
2022/12/27 11:12:24;;;;;;;38.28;13.25;;;;;;;4.69;100.00;102429.72;5093871;28;20023;-46
2022/12/27 11:14:54;;;;;;;36.65;12.57;;;;;;;4.68;100.00;102428.81;5083887;28;20120;-47
2022/12/27 11:17:24;;;;;;;26.50;12.02;;;;;;;4.71;100.00;102421.41;5093266;28;20016;-46
2022/12/27 11:19:50;;;;;;;32.25;13.57;;;;;;;4.77;100.00;102408.22;5093343;28;20110;-47
2022/12/27 11:22:15;;;;;;;36.30;12.68;;;;;;;4.82;100.00;102416.25;5093153;28;20105;-47
2022/12/27 11:24:49;;;;;;;41.50;13.80;;;;;;;4.86;100.00;102408.94;5092833;28;20031;-46
2022/12/27 11:27:25;;;;;;;43.50;17.88;;;;;;;4.95;100.00;102419.84;5093135;28;20028;-47
2022/12/27 11:29:53;;;;;;;35.83;13.77;;;;;;;5.00;100.00;102410.00;5093810;28;20099;-47
2022/12/27 11:32:22;;;;;;;;;;;;;;;5.14;100.00;102407.63;5094452;28;20024;-45
2022/12/27 11:34:48;;;;;;;29.30;11.95;;;;;;;5.10;100.00;102415.06;5092776;28;19916;-46
2022/12/27 11:37:18;;;;;;;30.05;12.32;;;;;;;5.11;100.00;102415.94;5093725;28;20024;-46
2022/12/27 11:39:50;;;;;;;32.78;12.13;;;;;;;5.09;100.00;102414.94;5093359;28;20028;-49
2022/12/27 11:42:37;;;;;;;31.65;12.52;;;;;;;5.14;100.00;102407.63;5093289;28;20028;-47
2022/12/27 11:45:17;;;;;;;32.85;11.95;;;;;;;5.13;100.00;102409.28;5093791;28;20032;-47
2022/12/27 11:47:55;;;;;;;33.22;13.32;;;;;;;5.09;100.00;102415.81;5093461;28;20027;-44
2022/12/27 11:50:27;;;;;;;35.45;13.30;;;;;;;5.07;100.00;102406.25;5092809;28;20430;-43
2022/12/27 11:53:15;;;;;;;34.45;12.70;;;;;;;5.10;100.00;102398.84;5093250;28;20028;-47
2022/12/27 11:56:18;;;;;;;34.28;11.98;;;;;;;5.11;100.00;102390.38;5092197;28;20072;-49
2022/12/27 11:59:02;;;;;;;31.92;13.32;;;;;;;5.06;100.00;102390.03;5093359;28;20032;-46
2022/12/27 12:02:05;;;;;;;31.85;12.60;;;;;;;5.02;100.00;102392.22;5093252;28;20024;-43
2022/12/27 12:05:06;;;;;;;33.25;14.60;;;;;;;4.96;100.00;102395.22;5092168;28;20197;-49
2022/12/27 12:07:57;;;;;;;33.47;15.45;;;;;;;4.87;100.00;102395.38;5093111;28;20114;-48
2022/12/27 12:10:40;;;;;;;38.17;13.40;;;;;;;4.81;100.00;102389.78;5090618;28;20024;-44
2022/12/27 12:13:31;;;;;;;36.28;14.20;;;;;;;4.79;100.00;102381.16;5092494;28;20475;-44
2022/12/27 12:16:14;;;;;;;33.03;12.35;;;;;;;4.74;100.00;102372.22;5092475;28;20509;-48
2022/12/27 12:18:46;;;;;;;31.10;11.43;;;;;;;4.70;100.00;102366.00;5091422;28;20027;-48
2022/12/27 12:21:26;;;;;;;27.80;11.50;;;;;;;4.69;100.00;102373.53;5092528;28;20112;-46
2022/12/27 12:24:16;;;;;;;39.85;12.05;;;;;;;4.69;100.00;102365.88;5091493;28;20494;-46
2022/12/27 12:26:47;;;;;;;25.95;10.60;;;;;;;4.67;100.00;102370.84;5092201;28;20105;-44
2022/12/27 12:29:24;;;;;;;29.33;11.75;;;;;;;4.69;100.00;102383.75;5092073;28;20042;-48
2022/12/27 12:32:17;;;;;;;30.60;11.40;;;;;;;4.71;100.00;102369.41;5091574;28;20024;-46
2022/12/27 12:34:48;;;;;;;34.45;11.55;;;;;;;4.75;100.00;102361.22;5092037;28;20062;-46
2022/12/27 12:37:21;;;;;;;30.33;12.20;;;;;;;4.77;100.00;102362.25;5092253;28;20028;-45
2022/12/27 12:40:05;;;;;;;26.35;11.65;;;;;;;4.82;100.00;102360.94;5091416;28;20121;-49
2022/12/27 12:42:56;;;;;;;31.58;11.98;;;;;;;4.85;100.00;102357.72;5092109;28;20024;-48
2022/12/27 12:45:39;;;;;;;30.27;11.10;;;;;;;4.85;100.00;102360.28;5091410;28;20095;-46
2022/12/27 12:48:32;;;;;;;36.90;11.48;;;;;;;4.85;100.00;102344.94;5092270;28;20028;-46
2022/12/27 12:51:06;;;;;;;33.65;12.23;;;;;;;4.85;100.00;102340.72;5092082;28;20548;-49
2022/12/27 12:53:40;;;;;;;46.25;16.55;;;;;;;4.91;100.00;102320.75;5091204;28;20028;-47
2022/12/27 12:56:24;;;;;;;45.65;24.90;;;;;;;5.11;100.00;102319.72;5091895;28;20479;-44
2022/12/27 12:59:27;;;;;;;36.78;14.48;;;;;;;5.40;100.00;102320.13;5091269;28;20051;-48
2022/12/27 13:02:11;;;;;;;39.97;14.02;;;;;;;5.76;100.00;102319.38;5110082;28;20076;-48